sensor_id;sensor_type;location;lat;lon;timestamp;temperature;humidity
2062;DHT22;11070;51.336;12.340;2022-08-19T00:01:33;20.90;99.90
2062;DHT22;11070;51.336;12.340;2022-08-19T00:04:02;20.90;99.90
2062;DHT22;11070;51.336;12.340;2022-08-19T00:06:29;20.80;99.90
2062;DHT22;11070;51.336;12.340;2022-08-19T00:08:55;20.80;99.90
2062;DHT22;11070;51.336;12.340;2022-08-19T00:11:21;20.80;99.90
2062;DHT22;11070;51.336;12.340;2022-08-19T00:13:48;20.80;99.90
2062;DHT22;11070;51.336;12.340;2022-08-19T00:16:16;20.80;99.90
2062;DHT22;11070;51.336;12.340;2022-08-19T00:18:44;20.80;99.90
2062;DHT22;11070;51.336;12.340;2022-08-19T00:21:10;20.90;99.90
2062;DHT22;11070;51.336;12.340;2022-08-19T00:23:36;20.90;99.90
2062;DHT22;11070;51.336;12.340;2022-08-19T00:26:04;20.90;99.90
2062;DHT22;11070;51.336;12.340;2022-08-19T00:28:30;21.00;99.90
2062;DHT22;11070;51.336;12.340;2022-08-19T00:30:56;21.00;99.90
2062;DHT22;11070;51.336;12.340;2022-08-19T00:33:21;21.10;99.90
2062;DHT22;11070;51.336;12.340;2022-08-19T00:35:47;21.10;99.90
2062;DHT22;11070;51.336;12.340;2022-08-19T00:38:13;21.20;99.90
2062;DHT22;11070;51.336;12.340;2022-08-19T00:40:39;21.30;99.90
2062;DHT22;11070;51.336;12.340;2022-08-19T00:43:12;21.30;99.90
2062;DHT22;11070;51.336;12.340;2022-08-19T00:45:39;21.30;99.90
2062;DHT22;11070;51.336;12.340;2022-08-19T00:48:08;21.30;99.90
2062;DHT22;11070;51.336;12.340;2022-08-19T00:50:34;21.30;99.90
2062;DHT22;11070;51.336;12.340;2022-08-19T00:53:01;21.20;99.90
2062;DHT22;11070;51.336;12.340;2022-08-19T00:55:30;21.20;99.90
2062;DHT22;11070;51.336;12.340;2022-08-19T00:57:59;21.10;99.90
2062;DHT22;11070;51.336;12.340;2022-08-19T01:00:28;21.10;99.90
2062;DHT22;11070;51.336;12.340;2022-08-19T01:02:54;21.00;99.90
2062;DHT22;11070;51.336;12.340;2022-08-19T01:05:23;21.00;99.90
2062;DHT22;11070;51.336;12.340;2022-08-19T01:07:53;21.00;99.90
2062;DHT22;11070;51.336;12.340;2022-08-19T01:10:23;20.90;99.90
2062;DHT22;11070;51.336;12.340;2022-08-19T01:12:49;21.00;99.90
2062;DHT22;11070;51.336;12.340;2022-08-19T01:15:19;21.00;99.90
2062;DHT22;11070;51.336;12.340;2022-08-19T01:17:47;20.90;99.90
2062;DHT22;11070;51.336;12.340;2022-08-19T01:20:17;21.00;99.90
2062;DHT22;11070;51.336;12.340;2022-08-19T01:25:15;21.00;99.90
2062;DHT22;11070;51.336;12.340;2022-08-19T01:27:43;20.90;99.90
2062;DHT22;11070;51.336;12.340;2022-08-19T01:30:12;20.80;99.90
2062;DHT22;11070;51.336;12.340;2022-08-19T01:32:37;20.70;99.90
2062;DHT22;11070;51.336;12.340;2022-08-19T01:35:04;20.60;99.90
2062;DHT22;11070;51.336;12.340;2022-08-19T01:37:40;20.60;99.90
2062;DHT22;11070;51.336;12.340;2022-08-19T01:40:07;20.60;99.90
2062;DHT22;11070;51.336;12.340;2022-08-19T01:42:33;20.60;99.90
2062;DHT22;11070;51.336;12.340;2022-08-19T01:45:00;20.60;99.90
2062;DHT22;11070;51.336;12.340;2022-08-19T01:47:26;20.60;99.90
2062;DHT22;11070;51.336;12.340;2022-08-19T01:49:51;20.70;99.90
2062;DHT22;11070;51.336;12.340;2022-08-19T01:52:17;20.70;99.90
2062;DHT22;11070;51.336;12.340;2022-08-19T01:54:43;20.70;99.90
2062;DHT22;11070;51.336;12.340;2022-08-19T01:57:11;20.60;99.90
2062;DHT22;11070;51.336;12.340;2022-08-19T01:59:40;20.70;99.90
2062;DHT22;11070;51.336;12.340;2022-08-19T02:02:06;20.70;99.90
2062;DHT22;11070;51.336;12.340;2022-08-19T02:04:34;20.60;99.90
2062;DHT22;11070;51.336;12.340;2022-08-19T02:07:01;20.60;99.90
2062;DHT22;11070;51.336;12.340;2022-08-19T02:09:27;20.60;99.90
2062;DHT22;11070;51.336;12.340;2022-08-19T02:11:53;20.60;99.90
2062;DHT22;11070;51.336;12.340;2022-08-19T02:14:18;20.60;99.90
2062;DHT22;11070;51.336;12.340;2022-08-19T02:16:44;20.60;99.90
2062;DHT22;11070;51.336;12.340;2022-08-19T02:19:10;20.60;99.90
2062;DHT22;11070;51.336;12.340;2022-08-19T02:21:36;20.70;99.90
2062;DHT22;11070;51.336;12.340;2022-08-19T02:24:02;20.80;99.90
2062;DHT22;11070;51.336;12.340;2022-08-19T02:26:28;20.80;99.90
2062;DHT22;11070;51.336;12.340;2022-08-19T02:28:54;20.80;99.90
2062;DHT22;11070;51.336;12.340;2022-08-19T02:31:22;20.80;99.90
2062;DHT22;11070;51.336;12.340;2022-08-19T02:33:48;20.70;99.90
2062;DHT22;11070;51.336;12.340;2022-08-19T02:36:15;20.80;99.90
2062;DHT22;11070;51.336;12.340;2022-08-19T02:38:42;20.70;99.90
2062;DHT22;11070;51.336;12.340;2022-08-19T02:41:30;20.70;99.90
2062;DHT22;11070;51.336;12.340;2022-08-19T02:43:58;20.60;99.90
2062;DHT22;11070;51.336;12.340;2022-08-19T02:46:27;20.60;99.90
2062;DHT22;11070;51.336;12.340;2022-08-19T02:48:56;20.60;99.90
2062;DHT22;11070;51.336;12.340;2022-08-19T02:51:31;20.60;99.90
2062;DHT22;11070;51.336;12.340;2022-08-19T02:53:57;20.60;99.90
2062;DHT22;11070;51.336;12.340;2022-08-19T02:56:24;20.60;99.90
2062;DHT22;11070;51.336;12.340;2022-08-19T02:58:54;20.70;99.90
2062;DHT22;11070;51.336;12.340;2022-08-19T03:01:28;20.70;99.90
2062;DHT22;11070;51.336;12.340;2022-08-19T03:03:55;20.60;99.90
2062;DHT22;11070;51.336;12.340;2022-08-19T03:06:22;20.60;99.90
2062;DHT22;11070;51.336;12.340;2022-08-19T03:08:48;20.60;99.90
2062;DHT22;11070;51.336;12.340;2022-08-19T03:11:28;20.60;99.90
2062;DHT22;11070;51.336;12.340;2022-08-19T03:13:55;20.60;99.90
2062;DHT22;11070;51.336;12.340;2022-08-19T03:16:23;20.60;99.90
2062;DHT22;11070;51.336;12.340;2022-08-19T03:18:50;20.70;99.90
2062;DHT22;11070;51.336;12.340;2022-08-19T03:21:30;20.60;99.90
2062;DHT22;11070;51.336;12.340;2022-08-19T03:23:58;20.60;99.90
2062;DHT22;11070;51.336;12.340;2022-08-19T03:26:24;20.60;99.90
2062;DHT22;11070;51.336;12.340;2022-08-19T03:28:50;20.60;99.90
2062;DHT22;11070;51.336;12.340;2022-08-19T03:31:21;20.60;99.90
2062;DHT22;11070;51.336;12.340;2022-08-19T03:33:48;20.60;99.90
2062;DHT22;11070;51.336;12.340;2022-08-19T03:36:23;20.60;99.90
2062;DHT22;11070;51.336;12.340;2022-08-19T03:38:51;20.70;99.90
2062;DHT22;11070;51.336;12.340;2022-08-19T03:41:26;20.70;99.90
2062;DHT22;11070;51.336;12.340;2022-08-19T03:43:53;20.70;99.90
2062;DHT22;11070;51.336;12.340;2022-08-19T03:46:22;20.70;99.90
2062;DHT22;11070;51.336;12.340;2022-08-19T03:48:50;20.70;99.90
2062;DHT22;11070;51.336;12.340;2022-08-19T03:51:34;20.80;99.90
2062;DHT22;11070;51.336;12.340;2022-08-19T03:54:02;20.80;99.90
2062;DHT22;11070;51.336;12.340;2022-08-19T03:56:29;20.70;99.90
2062;DHT22;11070;51.336;12.340;2022-08-19T03:58:56;20.70;99.90
2062;DHT22;11070;51.336;12.340;2022-08-19T04:01:24;20.70;99.90
2062;DHT22;11070;51.336;12.340;2022-08-19T04:03:52;20.70;99.90
2062;DHT22;11070;51.336;12.340;2022-08-19T04:06:21;20.70;99.90
2062;DHT22;11070;51.336;12.340;2022-08-19T04:08:49;20.80;99.90
2062;DHT22;11070;51.336;12.340;2022-08-19T04:11:17;20.80;99.90
2062;DHT22;11070;51.336;12.340;2022-08-19T04:13:44;20.80;99.90
2062;DHT22;11070;51.336;12.340;2022-08-19T04:16:10;20.80;99.90
2062;DHT22;11070;51.336;12.340;2022-08-19T04:18:37;20.70;99.90
2062;DHT22;11070;51.336;12.340;2022-08-19T04:21:04;20.70;99.90
2062;DHT22;11070;51.336;12.340;2022-08-19T04:23:31;20.80;99.90
2062;DHT22;11070;51.336;12.340;2022-08-19T04:25:57;20.90;99.90
2062;DHT22;11070;51.336;12.340;2022-08-19T04:28:24;20.90;99.90
2062;DHT22;11070;51.336;12.340;2022-08-19T04:30:51;20.90;99.90
2062;DHT22;11070;51.336;12.340;2022-08-19T04:33:21;20.90;99.90
2062;DHT22;11070;51.336;12.340;2022-08-19T04:35:50;20.90;99.90
2062;DHT22;11070;51.336;12.340;2022-08-19T04:38:18;20.90;99.90
2062;DHT22;11070;51.336;12.340;2022-08-19T04:40:47;20.90;99.90
2062;DHT22;11070;51.336;12.340;2022-08-19T04:43:32;20.90;99.90
2062;DHT22;11070;51.336;12.340;2022-08-19T04:46:03;20.90;99.90
2062;DHT22;11070;51.336;12.340;2022-08-19T04:48:29;20.90;99.90
2062;DHT22;11070;51.336;12.340;2022-08-19T04:50:56;20.90;99.90
2062;DHT22;11070;51.336;12.340;2022-08-19T04:53:27;20.80;99.90
2062;DHT22;11070;51.336;12.340;2022-08-19T04:55:55;20.90;99.90
2062;DHT22;11070;51.336;12.340;2022-08-19T04:58:22;20.90;99.90
2062;DHT22;11070;51.336;12.340;2022-08-19T05:00:51;21.00;99.90
2062;DHT22;11070;51.336;12.340;2022-08-19T05:03:17;21.10;99.90
2062;DHT22;11070;51.336;12.340;2022-08-19T05:05:44;21.20;99.90
2062;DHT22;11070;51.336;12.340;2022-08-19T05:08:15;21.20;99.90
2062;DHT22;11070;51.336;12.340;2022-08-19T05:10:48;21.20;99.90
2062;DHT22;11070;51.336;12.340;2022-08-19T05:13:15;21.20;99.90
2062;DHT22;11070;51.336;12.340;2022-08-19T05:15:42;21.30;99.90
2062;DHT22;11070;51.336;12.340;2022-08-19T05:18:08;21.20;99.90
2062;DHT22;11070;51.336;12.340;2022-08-19T05:20:52;21.20;99.90
2062;DHT22;11070;51.336;12.340;2022-08-19T05:23:36;21.20;99.90
2062;DHT22;11070;51.336;12.340;2022-08-19T05:26:04;21.20;99.90
2062;DHT22;11070;51.336;12.340;2022-08-19T05:28:30;21.10;99.90
2062;DHT22;11070;51.336;12.340;2022-08-19T05:30:56;21.00;99.90
2062;DHT22;11070;51.336;12.340;2022-08-19T05:33:22;21.00;99.90
2062;DHT22;11070;51.336;12.340;2022-08-19T05:35:48;20.90;99.90
2062;DHT22;11070;51.336;12.340;2022-08-19T05:38:18;20.90;99.90
2062;DHT22;11070;51.336;12.340;2022-08-19T05:40:44;21.00;99.90
2062;DHT22;11070;51.336;12.340;2022-08-19T05:43:15;20.90;99.90
2062;DHT22;11070;51.336;12.340;2022-08-19T05:45:43;21.00;99.90
2062;DHT22;11070;51.336;12.340;2022-08-19T05:48:12;21.00;99.90
2062;DHT22;11070;51.336;12.340;2022-08-19T05:50:40;21.00;99.90
2062;DHT22;11070;51.336;12.340;2022-08-19T05:53:07;21.00;99.90
2062;DHT22;11070;51.336;12.340;2022-08-19T05:55:34;21.00;99.90
2062;DHT22;11070;51.336;12.340;2022-08-19T05:58:00;21.00;99.90
2062;DHT22;11070;51.336;12.340;2022-08-19T06:00:27;21.10;99.90
2062;DHT22;11070;51.336;12.340;2022-08-19T06:02:53;21.10;99.90
2062;DHT22;11070;51.336;12.340;2022-08-19T06:05:22;21.10;99.90
2062;DHT22;11070;51.336;12.340;2022-08-19T06:07:47;21.10;99.90
2062;DHT22;11070;51.336;12.340;2022-08-19T06:10:14;21.00;99.90
2062;DHT22;11070;51.336;12.340;2022-08-19T06:12:40;21.00;99.90
2062;DHT22;11070;51.336;12.340;2022-08-19T06:15:10;21.00;99.90
2062;DHT22;11070;51.336;12.340;2022-08-19T06:17:37;21.00;99.90
2062;DHT22;11070;51.336;12.340;2022-08-19T06:20:08;21.00;99.90
2062;DHT22;11070;51.336;12.340;2022-08-19T06:22:43;21.00;99.90
2062;DHT22;11070;51.336;12.340;2022-08-19T06:25:10;21.00;99.90
2062;DHT22;11070;51.336;12.340;2022-08-19T06:27:36;21.00;99.90
2062;DHT22;11070;51.336;12.340;2022-08-19T06:30:03;21.00;99.90
2062;DHT22;11070;51.336;12.340;2022-08-19T06:32:30;20.90;99.90
2062;DHT22;11070;51.336;12.340;2022-08-19T06:34:56;20.90;99.90
2062;DHT22;11070;51.336;12.340;2022-08-19T06:37:21;20.90;99.90
2062;DHT22;11070;51.336;12.340;2022-08-19T06:39:47;21.00;99.90
2062;DHT22;11070;51.336;12.340;2022-08-19T06:42:13;21.00;99.90
2062;DHT22;11070;51.336;12.340;2022-08-19T06:44:42;21.00;99.90
2062;DHT22;11070;51.336;12.340;2022-08-19T06:47:10;21.10;99.90
2062;DHT22;11070;51.336;12.340;2022-08-19T06:49:37;21.10;99.90
2062;DHT22;11070;51.336;12.340;2022-08-19T06:52:03;21.10;99.90
2062;DHT22;11070;51.336;12.340;2022-08-19T06:54:30;21.10;99.90
2062;DHT22;11070;51.336;12.340;2022-08-19T06:56:57;21.10;99.90
2062;DHT22;11070;51.336;12.340;2022-08-19T06:59:24;21.00;99.90
2062;DHT22;11070;51.336;12.340;2022-08-19T07:01:55;21.10;99.90
2062;DHT22;11070;51.336;12.340;2022-08-19T07:04:30;21.10;99.90
2062;DHT22;11070;51.336;12.340;2022-08-19T07:07:12;21.10;99.90
2062;DHT22;11070;51.336;12.340;2022-08-19T07:09:41;21.10;99.90
2062;DHT22;11070;51.336;12.340;2022-08-19T07:12:13;21.00;99.90
2062;DHT22;11070;51.336;12.340;2022-08-19T07:14:41;21.00;99.90
2062;DHT22;11070;51.336;12.340;2022-08-19T07:17:10;21.00;99.90
2062;DHT22;11070;51.336;12.340;2022-08-19T07:19:37;20.90;99.90
2062;DHT22;11070;51.336;12.340;2022-08-19T07:22:06;20.90;99.90
2062;DHT22;11070;51.336;12.340;2022-08-19T07:24:32;20.90;99.90
2062;DHT22;11070;51.336;12.340;2022-08-19T07:27:03;20.80;99.90
2062;DHT22;11070;51.336;12.340;2022-08-19T07:29:32;20.80;99.90
2062;DHT22;11070;51.336;12.340;2022-08-19T07:32:00;20.80;99.90
2062;DHT22;11070;51.336;12.340;2022-08-19T07:34:28;20.90;99.90
2062;DHT22;11070;51.336;12.340;2022-08-19T07:36:54;20.90;99.90
2062;DHT22;11070;51.336;12.340;2022-08-19T07:39:26;20.90;99.90
2062;DHT22;11070;51.336;12.340;2022-08-19T07:41:52;21.00;99.90
2062;DHT22;11070;51.336;12.340;2022-08-19T07:44:19;21.10;99.90
2062;DHT22;11070;51.336;12.340;2022-08-19T07:46:49;21.00;99.90
2062;DHT22;11070;51.336;12.340;2022-08-19T07:49:16;21.00;99.90
2062;DHT22;11070;51.336;12.340;2022-08-19T07:51:50;21.00;99.90
2062;DHT22;11070;51.336;12.340;2022-08-19T07:54:16;21.00;99.90
2062;DHT22;11070;51.336;12.340;2022-08-19T07:56:42;21.00;99.90
2062;DHT22;11070;51.336;12.340;2022-08-19T07:59:09;21.00;99.90
2062;DHT22;11070;51.336;12.340;2022-08-19T08:01:35;21.00;99.90
2062;DHT22;11070;51.336;12.340;2022-08-19T08:04:01;21.00;99.90
2062;DHT22;11070;51.336;12.340;2022-08-19T08:06:45;21.00;99.90
2062;DHT22;11070;51.336;12.340;2022-08-19T08:09:33;20.90;99.90
2062;DHT22;11070;51.336;12.340;2022-08-19T08:12:06;21.10;99.90
2062;DHT22;11070;51.336;12.340;2022-08-19T08:14:36;21.10;99.90
2062;DHT22;11070;51.336;12.340;2022-08-19T08:17:03;21.20;99.90
2062;DHT22;11070;51.336;12.340;2022-08-19T08:19:30;21.30;99.90
2062;DHT22;11070;51.336;12.340;2022-08-19T08:21:58;21.30;82.80
2062;DHT22;11070;51.336;12.340;2022-08-19T08:24:26;21.30;75.80
2062;DHT22;11070;51.336;12.340;2022-08-19T08:26:57;21.30;55.50
2062;DHT22;11070;51.336;12.340;2022-08-19T08:29:25;21.30;71.20
2062;DHT22;11070;51.336;12.340;2022-08-19T08:31:55;21.40;53.50
2062;DHT22;11070;51.336;12.340;2022-08-19T08:34:22;21.30;48.70
2062;DHT22;11070;51.336;12.340;2022-08-19T08:36:48;21.30;36.90
2062;DHT22;11070;51.336;12.340;2022-08-19T08:39:18;21.20;28.60
2062;DHT22;11070;51.336;12.340;2022-08-19T08:41:58;21.20;26.20
2062;DHT22;11070;51.336;12.340;2022-08-19T08:44:58;21.20;5.50
2062;DHT22;11070;51.336;12.340;2022-08-19T08:47:26;21.20;3.60
2062;DHT22;11070;51.336;12.340;2022-08-19T08:50:03;21.30;1.00
2062;DHT22;11070;51.336;12.340;2022-08-19T08:52:43;21.20;1.00
2062;DHT22;11070;51.336;12.340;2022-08-19T08:55:13;21.20;1.00
2062;DHT22;11070;51.336;12.340;2022-08-19T08:57:52;21.30;1.00
2062;DHT22;11070;51.336;12.340;2022-08-19T09:00:26;21.40;1.00
2062;DHT22;11070;51.336;12.340;2022-08-19T09:02:57;21.40;1.00
2062;DHT22;11070;51.336;12.340;2022-08-19T09:05:34;21.40;1.00
2062;DHT22;11070;51.336;12.340;2022-08-19T09:08:08;21.50;1.00
2062;DHT22;11070;51.336;12.340;2022-08-19T09:10:43;21.50;1.00
2062;DHT22;11070;51.336;12.340;2022-08-19T09:15:58;21.40;1.00
2062;DHT22;11070;51.336;12.340;2022-08-19T09:18:42;21.50;1.00
2062;DHT22;11070;51.336;12.340;2022-08-19T09:21:08;21.70;1.00
2062;DHT22;11070;51.336;12.340;2022-08-19T09:23:36;21.90;1.00
2062;DHT22;11070;51.336;12.340;2022-08-19T09:26:14;22.00;1.00
2062;DHT22;11070;51.336;12.340;2022-08-19T09:28:41;22.10;99.90
2062;DHT22;11070;51.336;12.340;2022-08-19T09:31:11;22.10;99.90
2062;DHT22;11070;51.336;12.340;2022-08-19T09:33:40;22.00;99.90
2062;DHT22;11070;51.336;12.340;2022-08-19T09:36:13;21.80;99.90
2062;DHT22;11070;51.336;12.340;2022-08-19T09:38:39;21.80;99.90
2062;DHT22;11070;51.336;12.340;2022-08-19T09:41:08;21.80;99.90
2062;DHT22;11070;51.336;12.340;2022-08-19T09:43:36;21.90;99.90
2062;DHT22;11070;51.336;12.340;2022-08-19T09:46:04;21.90;99.90
2062;DHT22;11070;51.336;12.340;2022-08-19T09:48:38;22.00;14.00
2062;DHT22;11070;51.336;12.340;2022-08-19T09:51:09;22.10;1.00
2062;DHT22;11070;51.336;12.340;2022-08-19T09:53:35;22.10;99.90
2062;DHT22;11070;51.336;12.340;2022-08-19T09:56:02;22.20;99.90
2062;DHT22;11070;51.336;12.340;2022-08-19T09:58:35;22.20;1.00
2062;DHT22;11070;51.336;12.340;2022-08-19T10:01:03;22.10;1.00
2062;DHT22;11070;51.336;12.340;2022-08-19T10:03:30;22.00;1.00
2062;DHT22;11070;51.336;12.340;2022-08-19T10:06:02;22.10;1.00
2062;DHT22;11070;51.336;12.340;2022-08-19T10:08:31;22.10;99.90
2062;DHT22;11070;51.336;12.340;2022-08-19T10:10:59;22.10;1.00
2062;DHT22;11070;51.336;12.340;2022-08-19T10:13:28;22.20;1.00
2062;DHT22;11070;51.336;12.340;2022-08-19T10:15:56;22.50;1.00
2062;DHT22;11070;51.336;12.340;2022-08-19T10:18:23;22.90;99.90
2062;DHT22;11070;51.336;12.340;2022-08-19T10:20:51;23.30;66.00
2062;DHT22;11070;51.336;12.340;2022-08-19T10:23:20;23.60;1.00
2062;DHT22;11070;51.336;12.340;2022-08-19T10:25:46;23.70;99.90
2062;DHT22;11070;51.336;12.340;2022-08-19T10:28:13;23.70;1.00
2062;DHT22;11070;51.336;12.340;2022-08-19T10:30:39;23.70;99.90
2062;DHT22;11070;51.336;12.340;2022-08-19T10:33:06;23.80;99.90
2062;DHT22;11070;51.336;12.340;2022-08-19T10:35:32;23.60;99.90
2062;DHT22;11070;51.336;12.340;2022-08-19T10:37:58;23.30;1.00
2062;DHT22;11070;51.336;12.340;2022-08-19T10:40:26;23.20;1.00
2062;DHT22;11070;51.336;12.340;2022-08-19T10:42:54;23.50;1.00
2062;DHT22;11070;51.336;12.340;2022-08-19T10:45:21;23.70;99.90
2062;DHT22;11070;51.336;12.340;2022-08-19T10:47:54;23.70;99.90
2062;DHT22;11070;51.336;12.340;2022-08-19T10:50:20;23.40;99.90
2062;DHT22;11070;51.336;12.340;2022-08-19T10:53:07;23.20;99.90
2062;DHT22;11070;51.336;12.340;2022-08-19T10:55:36;23.10;1.00
2062;DHT22;11070;51.336;12.340;2022-08-19T10:58:21;22.90;1.00
2062;DHT22;11070;51.336;12.340;2022-08-19T11:00:58;22.70;1.00
2062;DHT22;11070;51.336;12.340;2022-08-19T11:03:25;22.60;99.90
2062;DHT22;11070;51.336;12.340;2022-08-19T11:06:06;22.70;6.90
2062;DHT22;11070;51.336;12.340;2022-08-19T11:08:34;22.90;1.00
2062;DHT22;11070;51.336;12.340;2022-08-19T11:11:04;23.00;1.00
2062;DHT22;11070;51.336;12.340;2022-08-19T11:13:33;23.30;99.90
2062;DHT22;11070;51.336;12.340;2022-08-19T11:16:03;23.40;99.90
2062;DHT22;11070;51.336;12.340;2022-08-19T11:18:29;23.40;99.90
2062;DHT22;11070;51.336;12.340;2022-08-19T11:20:55;23.50;99.90
2062;DHT22;11070;51.336;12.340;2022-08-19T11:23:31;23.50;99.90
2062;DHT22;11070;51.336;12.340;2022-08-19T11:25:56;23.50;99.90
2062;DHT22;11070;51.336;12.340;2022-08-19T11:28:22;23.40;99.90
2062;DHT22;11070;51.336;12.340;2022-08-19T11:30:48;23.40;91.90
2062;DHT22;11070;51.336;12.340;2022-08-19T11:33:14;23.40;17.60
2062;DHT22;11070;51.336;12.340;2022-08-19T11:35:40;23.40;9.30
2062;DHT22;11070;51.336;12.340;2022-08-19T11:38:06;23.50;1.00
2062;DHT22;11070;51.336;12.340;2022-08-19T11:40:32;23.70;1.00
2062;DHT22;11070;51.336;12.340;2022-08-19T11:42:58;24.00;1.00
2062;DHT22;11070;51.336;12.340;2022-08-19T11:45:26;24.00;1.00
2062;DHT22;11070;51.336;12.340;2022-08-19T11:47:52;24.10;1.00
2062;DHT22;11070;51.336;12.340;2022-08-19T11:50:19;23.90;1.00
2062;DHT22;11070;51.336;12.340;2022-08-19T11:52:45;23.80;1.00
2062;DHT22;11070;51.336;12.340;2022-08-19T11:55:12;23.90;1.00
2062;DHT22;11070;51.336;12.340;2022-08-19T11:57:38;24.30;1.00
2062;DHT22;11070;51.336;12.340;2022-08-19T12:00:06;24.50;1.00
2062;DHT22;11070;51.336;12.340;2022-08-19T12:02:33;24.60;1.00
2062;DHT22;11070;51.336;12.340;2022-08-19T12:04:59;24.60;1.00
2062;DHT22;11070;51.336;12.340;2022-08-19T12:07:27;24.40;1.00
2062;DHT22;11070;51.336;12.340;2022-08-19T12:09:54;24.00;1.00
2062;DHT22;11070;51.336;12.340;2022-08-19T12:12:20;24.10;1.00
2062;DHT22;11070;51.336;12.340;2022-08-19T12:14:46;24.30;1.00
2062;DHT22;11070;51.336;12.340;2022-08-19T12:17:12;24.80;1.00
2062;DHT22;11070;51.336;12.340;2022-08-19T12:19:38;25.20;1.00
2062;DHT22;11070;51.336;12.340;2022-08-19T12:22:04;25.90;1.00
2062;DHT22;11070;51.336;12.340;2022-08-19T12:24:32;26.60;99.90
2062;DHT22;11070;51.336;12.340;2022-08-19T12:26:59;27.30;99.90
2062;DHT22;11070;51.336;12.340;2022-08-19T12:29:28;27.80;99.90
2062;DHT22;11070;51.336;12.340;2022-08-19T12:31:54;29.30;99.90
2062;DHT22;11070;51.336;12.340;2022-08-19T12:34:27;29.30;99.90
2062;DHT22;11070;51.336;12.340;2022-08-19T12:36:56;29.20;99.90
2062;DHT22;11070;51.336;12.340;2022-08-19T12:39:22;28.70;99.90
2062;DHT22;11070;51.336;12.340;2022-08-19T12:41:47;28.20;99.90
2062;DHT22;11070;51.336;12.340;2022-08-19T12:44:14;27.40;99.90
2062;DHT22;11070;51.336;12.340;2022-08-19T12:46:40;27.20;99.90
2062;DHT22;11070;51.336;12.340;2022-08-19T12:49:06;27.50;99.90
2062;DHT22;11070;51.336;12.340;2022-08-19T12:51:32;27.90;99.90
2062;DHT22;11070;51.336;12.340;2022-08-19T12:53:58;28.60;99.90
2062;DHT22;11070;51.336;12.340;2022-08-19T12:56:24;29.00;99.90
2062;DHT22;11070;51.336;12.340;2022-08-19T12:58:50;29.20;99.90
2062;DHT22;11070;51.336;12.340;2022-08-19T13:01:17;29.10;99.90
2062;DHT22;11070;51.336;12.340;2022-08-19T13:03:45;29.00;99.90
2062;DHT22;11070;51.336;12.340;2022-08-19T13:06:11;28.70;99.90
2062;DHT22;11070;51.336;12.340;2022-08-19T13:08:37;28.70;99.90
2062;DHT22;11070;51.336;12.340;2022-08-19T13:11:30;28.50;99.90
2062;DHT22;11070;51.336;12.340;2022-08-19T13:13:59;28.40;99.90
2062;DHT22;11070;51.336;12.340;2022-08-19T13:16:25;28.40;99.90
2062;DHT22;11070;51.336;12.340;2022-08-19T13:18:54;28.20;99.90
2062;DHT22;11070;51.336;12.340;2022-08-19T13:21:23;27.90;99.90
2062;DHT22;11070;51.336;12.340;2022-08-19T13:23:50;27.80;99.90
2062;DHT22;11070;51.336;12.340;2022-08-19T13:26:16;27.50;99.90
2062;DHT22;11070;51.336;12.340;2022-08-19T13:28:43;27.10;99.90
2062;DHT22;11070;51.336;12.340;2022-08-19T13:31:32;26.90;99.90
2062;DHT22;11070;51.336;12.340;2022-08-19T13:34:30;26.80;99.90
2062;DHT22;11070;51.336;12.340;2022-08-19T13:36:59;26.50;99.90
2062;DHT22;11070;51.336;12.340;2022-08-19T13:39:25;26.30;99.90
2062;DHT22;11070;51.336;12.340;2022-08-19T13:41:51;26.10;99.90
2062;DHT22;11070;51.336;12.340;2022-08-19T13:44:17;25.80;99.90
2062;DHT22;11070;51.336;12.340;2022-08-19T13:46:45;25.70;99.90
2062;DHT22;11070;51.336;12.340;2022-08-19T13:49:12;25.60;99.90
2062;DHT22;11070;51.336;12.340;2022-08-19T13:51:39;25.40;99.90
2062;DHT22;11070;51.336;12.340;2022-08-19T13:54:07;25.20;1.00
2062;DHT22;11070;51.336;12.340;2022-08-19T13:56:40;24.90;1.00
2062;DHT22;11070;51.336;12.340;2022-08-19T13:59:06;24.60;1.00
2062;DHT22;11070;51.336;12.340;2022-08-19T14:01:32;24.30;1.00
2062;DHT22;11070;51.336;12.340;2022-08-19T14:03:58;24.30;1.00
2062;DHT22;11070;51.336;12.340;2022-08-19T14:06:27;24.30;1.00
2062;DHT22;11070;51.336;12.340;2022-08-19T14:08:52;24.30;1.00
2062;DHT22;11070;51.336;12.340;2022-08-19T14:11:18;24.30;1.00
2062;DHT22;11070;51.336;12.340;2022-08-19T14:13:47;24.20;1.00
2062;DHT22;11070;51.336;12.340;2022-08-19T14:16:14;24.10;1.00
2062;DHT22;11070;51.336;12.340;2022-08-19T14:18:40;24.10;1.00
2062;DHT22;11070;51.336;12.340;2022-08-19T14:21:07;24.20;1.00
2062;DHT22;11070;51.336;12.340;2022-08-19T14:23:34;24.40;1.00
2062;DHT22;11070;51.336;12.340;2022-08-19T14:26:08;24.50;1.00
2062;DHT22;11070;51.336;12.340;2022-08-19T14:28:34;24.50;1.00
2062;DHT22;11070;51.336;12.340;2022-08-19T14:31:00;24.50;1.00
2062;DHT22;11070;51.336;12.340;2022-08-19T14:33:26;24.50;1.00
2062;DHT22;11070;51.336;12.340;2022-08-19T14:35:52;24.50;1.00
2062;DHT22;11070;51.336;12.340;2022-08-19T14:38:18;24.70;1.00
2062;DHT22;11070;51.336;12.340;2022-08-19T14:40:44;24.70;1.00
2062;DHT22;11070;51.336;12.340;2022-08-19T14:43:11;24.60;1.00
2062;DHT22;11070;51.336;12.340;2022-08-19T14:45:39;24.50;1.00
2062;DHT22;11070;51.336;12.340;2022-08-19T14:48:14;24.30;1.00
2062;DHT22;11070;51.336;12.340;2022-08-19T14:50:40;24.20;1.00
2062;DHT22;11070;51.336;12.340;2022-08-19T14:53:07;24.10;1.00
2062;DHT22;11070;51.336;12.340;2022-08-19T14:55:33;24.00;1.00
2062;DHT22;11070;51.336;12.340;2022-08-19T14:57:59;24.10;1.00
2062;DHT22;11070;51.336;12.340;2022-08-19T15:00:26;24.10;1.00
2062;DHT22;11070;51.336;12.340;2022-08-19T15:02:52;24.10;1.00
2062;DHT22;11070;51.336;12.340;2022-08-19T15:05:20;24.20;1.00
2062;DHT22;11070;51.336;12.340;2022-08-19T15:07:47;24.20;1.00
2062;DHT22;11070;51.336;12.340;2022-08-19T15:10:14;24.10;1.00
2062;DHT22;11070;51.336;12.340;2022-08-19T15:12:40;24.10;1.00
2062;DHT22;11070;51.336;12.340;2022-08-19T15:15:08;24.10;1.00
2062;DHT22;11070;51.336;12.340;2022-08-19T15:17:34;24.00;1.00
2062;DHT22;11070;51.336;12.340;2022-08-19T15:20:03;23.90;1.00
2062;DHT22;11070;51.336;12.340;2022-08-19T15:22:32;23.80;1.00
2062;DHT22;11070;51.336;12.340;2022-08-19T15:24:58;23.60;1.00
2062;DHT22;11070;51.336;12.340;2022-08-19T15:27:25;23.40;1.00
2062;DHT22;11070;51.336;12.340;2022-08-19T15:29:50;23.20;1.00
2062;DHT22;11070;51.336;12.340;2022-08-19T15:32:17;23.20;1.00
2062;DHT22;11070;51.336;12.340;2022-08-19T15:34:45;23.30;1.00
2062;DHT22;11070;51.336;12.340;2022-08-19T15:37:14;23.40;1.00
2062;DHT22;11070;51.336;12.340;2022-08-19T15:39:40;23.40;1.00
2062;DHT22;11070;51.336;12.340;2022-08-19T15:42:08;23.50;1.00
2062;DHT22;11070;51.336;12.340;2022-08-19T15:44:34;23.60;1.00
2062;DHT22;11070;51.336;12.340;2022-08-19T15:47:00;23.50;1.00
2062;DHT22;11070;51.336;12.340;2022-08-19T15:49:25;23.50;1.00